Time;durP1;ratioP1;P1;durP2;ratioP2;P2;SDS_P1;SDS_P2;PMS_P1;PMS_P2;Temp;Humidity;BMP_temperature;BMP_pressure;BME280_temperature;BME280_humidity;BME280_pressure;Samples;Min_cycle;Max_cycle;Signal;HPM_P1;HPM_P2
2022/07/30 00:00:36;;;;;;;4.80;4.40;;;;;;;;;;5038868;28;20261;-74
2022/07/30 00:03:02;;;;;;;4.27;3.90;;;;;;;;;;5035812;28;20326;-74
2022/07/30 00:05:27;;;;;;;4.40;4.00;;;;;;;;;;5029923;28;20548;-75
2022/07/30 00:07:52;;;;;;;5.10;4.70;;;;;;;;;;5051564;28;20170;-74
2022/07/30 00:10:19;;;;;;;3.93;3.37;;;;;;;;;;5047218;28;20188;-75
2022/07/30 00:12:44;;;;;;;4.17;3.80;;;;;;;;;;5040238;28;20187;-74
2022/07/30 00:15:09;;;;;;;4.30;3.90;;;;;;;;;;5036864;28;20190;-75
2022/07/30 00:17:35;;;;;;;4.00;3.70;;;;;;;;;;5033380;28;20217;-75
2022/07/30 00:20:00;;;;;;;4.13;3.83;;;;;;;;;;5034810;28;20248;-74
2022/07/30 00:22:26;;;;;;;3.80;3.50;;;;;;;;;;5053162;28;20212;-74
2022/07/30 00:24:51;;;;;;;4.10;3.80;;;;;;;;;;5034068;28;20179;-75
2022/07/30 00:27:16;;;;;;;4.30;3.90;;;;;;;;;;5043521;28;20174;-74
2022/07/30 00:29:42;;;;;;;4.60;4.30;;;;;;;;;;5050428;28;20177;-75
2022/07/30 00:32:07;;;;;;;4.50;4.10;;;;;;;;;;5046611;28;20186;-75
2022/07/30 00:34:32;;;;;;;5.93;3.97;;;;;;;;;;5041627;28;20175;-75
2022/07/30 00:36:57;;;;;;;4.80;3.80;;;;;;;;;;5054754;28;20196;-75
2022/07/30 00:39:22;;;;;;;4.53;3.83;;;;;;;;;;5049038;28;20185;-74
2022/07/30 00:41:51;;;;;;;4.43;4.03;;;;;;;;;;5033425;28;20201;-75
2022/07/30 00:44:16;;;;;;;5.57;4.50;;;;;;;;;;5044403;28;20258;-75
2022/07/30 00:46:42;;;;;;;4.60;4.20;;;;;;;;;;5049036;28;20260;-75
2022/07/30 00:49:07;;;;;;;4.83;4.43;;;;;;;;;;5048728;28;20224;-75
2022/07/30 00:51:32;;;;;;;4.97;4.47;;;;;;;;;;5034952;28;20184;-75
2022/07/30 00:53:57;;;;;;;4.57;4.17;;;;;;;;;;5033633;28;20277;-75
2022/07/30 00:56:22;;;;;;;4.87;4.40;;;;;;;;;;5030483;28;20175;-75
2022/07/30 00:58:48;;;;;;;5.00;4.37;;;;;;;;;;5050014;28;20202;-75
2022/07/30 01:01:13;;;;;;;6.87;5.00;;;;;;;;;;5033098;28;20439;-75
2022/07/30 01:03:38;;;;;;;5.43;4.80;;;;;;;;;;5052099;28;20166;-75
2022/07/30 01:06:03;;;;;;;5.30;4.77;;;;;;;;;;5053071;28;20186;-75
2022/07/30 01:08:28;;;;;;;5.40;4.90;;;;;;;;;;5036095;28;20173;-75
2022/07/30 01:10:53;;;;;;;6.03;5.43;;;;;;;;;;5031944;28;20181;-75
2022/07/30 01:13:19;;;;;;;6.50;5.17;;;;;;;;;;5026132;28;20186;-74
2022/07/30 01:15:44;;;;;;;6.40;5.80;;;;;;;;;;5048904;28;20195;-75
2022/07/30 01:18:11;;;;;;;5.30;4.80;;;;;;;;;;5030734;28;20232;-75
2022/07/30 01:20:56;;;;;;;5.70;5.20;;;;;;;;;;5050103;28;20278;-74
2022/07/30 01:23:30;;;;;;;6.30;5.77;;;;;;;;;;5027758;28;20196;-75
2022/07/30 01:26:03;;;;;;;5.60;5.03;;;;;;;;;;5049040;28;20238;-75
2022/07/30 01:28:30;;;;;;;5.63;5.10;;;;;;;;;;5051449;28;20170;-75
2022/07/30 01:30:56;;;;;;;6.20;5.60;;;;;;;;;;5042934;28;20192;-75
2022/07/30 01:33:22;;;;;;;5.27;4.87;;;;;;;;;;5028650;28;20185;-75
2022/07/30 01:35:49;;;;;;;6.30;5.13;;;;;;;;;;5050572;28;20208;-75
2022/07/30 01:38:16;;;;;;;5.77;5.00;;;;;;;;;;5048319;28;20188;-74
2022/07/30 01:40:42;;;;;;;5.77;5.30;;;;;;;;;;5028523;28;20181;-74
2022/07/30 01:43:08;;;;;;;7.50;5.23;;;;;;;;;;5030874;28;20181;-74
2022/07/30 01:45:33;;;;;;;5.50;4.77;;;;;;;;;;5032475;28;20191;-74
2022/07/30 01:48:01;;;;;;;5.67;5.10;;;;;;;;;;5036098;28;20177;-74
2022/07/30 01:50:27;;;;;;;6.00;5.40;;;;;;;;;;5048522;28;20266;-75
2022/07/30 01:52:53;;;;;;;7.37;6.33;;;;;;;;;;5039558;28;20342;-75
2022/07/30 01:55:24;;;;;;;6.97;6.27;;;;;;;;;;5052847;28;20512;-75
2022/07/30 01:57:50;;;;;;;9.10;5.73;;;;;;;;;;5027214;28;20181;-74
2022/07/30 02:00:16;;;;;;;6.17;5.67;;;;;;;;;;5052576;28;20190;-75
2022/07/30 02:02:41;;;;;;;7.67;5.83;;;;;;;;;;5029772;28;20232;-74
2022/07/30 02:05:07;;;;;;;7.27;5.67;;;;;;;;;;5046050;28;20227;-74
2022/07/30 02:07:41;;;;;;;5.83;5.30;;;;;;;;;;5043121;28;20232;-74
2022/07/30 02:10:11;;;;;;;5.97;5.37;;;;;;;;;;5032317;28;20210;-74
2022/07/30 02:12:38;;;;;;;6.83;6.23;;;;;;;;;;5051056;28;20276;-75
2022/07/30 02:15:04;;;;;;;6.60;6.00;;;;;;;;;;5047766;28;20175;-74
2022/07/30 02:17:37;;;;;;;7.57;6.37;;;;;;;;;;5047740;28;20190;-74
2022/07/30 02:20:03;;;;;;;6.87;6.27;;;;;;;;;;5043149;28;20292;-74
2022/07/30 02:22:32;;;;;;;9.57;6.37;;;;;;;;;;5032754;28;20215;-74
2022/07/30 02:24:59;;;;;;;8.47;5.87;;;;;;;;;;5029828;28;20209;-75
2022/07/30 02:27:26;;;;;;;8.73;6.00;;;;;;;;;;5047846;28;20186;-74
2022/07/30 02:29:52;;;;;;;6.63;5.90;;;;;;;;;;5049535;28;20176;-74
2022/07/30 02:32:20;;;;;;;6.13;5.60;;;;;;;;;;5030144;28;20189;-74
2022/07/30 02:34:48;;;;;;;6.30;5.70;;;;;;;;;;5031567;28;20179;-74
2022/07/30 02:37:14;;;;;;;8.43;7.07;;;;;;;;;;5044590;28;20183;-74
2022/07/30 02:39:40;;;;;;;6.60;6.00;;;;;;;;;;5054390;28;20175;-74
2022/07/30 02:42:06;;;;;;;9.23;6.07;;;;;;;;;;5033830;28;20202;-74
2022/07/30 02:44:32;;;;;;;8.17;6.37;;;;;;;;;;5028948;28;20254;-74
2022/07/30 02:46:58;;;;;;;6.77;6.07;;;;;;;;;;5045663;28;20193;-74
2022/07/30 02:49:25;;;;;;;7.43;6.53;;;;;;;;;;5047173;28;20194;-74
2022/07/30 02:51:51;;;;;;;9.37;6.73;;;;;;;;;;5029053;28;20171;-74
2022/07/30 02:54:17;;;;;;;7.27;6.33;;;;;;;;;;5049985;28;20182;-74
2022/07/30 02:56:43;;;;;;;6.87;6.23;;;;;;;;;;5032634;28;20181;-74
2022/07/30 02:59:10;;;;;;;7.40;6.77;;;;;;;;;;5030400;28;20174;-74
2022/07/30 03:01:35;;;;;;;7.30;6.63;;;;;;;;;;5041282;28;20230;-74
2022/07/30 03:04:02;;;;;;;7.43;6.73;;;;;;;;;;5048584;28;20214;-74
2022/07/30 03:06:28;;;;;;;7.27;6.57;;;;;;;;;;5034123;28;20175;-74
2022/07/30 03:08:55;;;;;;;6.87;6.20;;;;;;;;;;5054308;28;20174;-74
2022/07/30 03:11:20;;;;;;;7.67;6.83;;;;;;;;;;5052649;28;20236;-74
2022/07/30 03:13:46;;;;;;;6.77;5.77;;;;;;;;;;5050286;28;20174;-74
2022/07/30 03:16:11;;;;;;;6.47;5.83;;;;;;;;;;5035626;28;20186;-74
2022/07/30 03:18:40;;;;;;;10.30;6.90;;;;;;;;;;5054380;28;20206;-74
2022/07/30 03:21:06;;;;;;;7.20;6.07;;;;;;;;;;5050814;28;20254;-74
2022/07/30 03:23:33;;;;;;;6.83;6.20;;;;;;;;;;5038586;28;20170;-74
2022/07/30 03:26:02;;;;;;;6.27;5.50;;;;;;;;;;5047598;28;20228;-74
2022/07/30 03:28:29;;;;;;;5.73;5.10;;;;;;;;;;5045834;28;20243;-74
2022/07/30 03:30:55;;;;;;;7.47;5.37;;;;;;;;;;5048788;28;20203;-74
2022/07/30 03:33:20;;;;;;;6.20;5.50;;;;;;;;;;5034785;28;20189;-74
2022/07/30 03:35:46;;;;;;;6.37;5.77;;;;;;;;;;5058500;28;20209;-74
2022/07/30 03:38:12;;;;;;;6.70;5.43;;;;;;;;;;5053391;28;20181;-74
2022/07/30 03:40:38;;;;;;;6.67;5.20;;;;;;;;;;5055887;28;20188;-74
2022/07/30 03:43:03;;;;;;;6.33;5.30;;;;;;;;;;5038268;28;20306;-74
2022/07/30 03:45:29;;;;;;;6.70;6.00;;;;;;;;;;5036480;28;20181;-74
2022/07/30 03:47:55;;;;;;;7.03;6.33;;;;;;;;;;5049468;28;20383;-74
2022/07/30 03:50:20;;;;;;;9.37;7.47;;;;;;;;;;5051493;28;20189;-74
2022/07/30 03:52:45;;;;;;;7.80;6.30;;;;;;;;;;5036024;28;20182;-74
2022/07/30 03:55:11;;;;;;;7.13;6.43;;;;;;;;;;5034242;28;20221;-74
2022/07/30 03:57:36;;;;;;;7.20;6.50;;;;;;;;;;5031575;28;20209;-74
2022/07/30 04:00:07;;;;;;;6.47;5.90;;;;;;;;;;5033744;28;20189;-74
2022/07/30 04:02:39;;;;;;;7.00;6.40;;;;;;;;;;5036490;28;20254;-74
2022/07/30 04:05:04;;;;;;;6.13;5.53;;;;;;;;;;5035901;28;20180;-74
2022/07/30 04:07:30;;;;;;;8.47;6.23;;;;;;;;;;5050518;28;20178;-74
2022/07/30 04:09:55;;;;;;;7.83;7.17;;;;;;;;;;5031342;28;20181;-74
2022/07/30 04:12:20;;;;;;;9.50;7.40;;;;;;;;;;5053151;28;20197;-74
2022/07/30 04:14:45;;;;;;;8.40;6.70;;;;;;;;;;5044084;28;20177;-74
2022/07/30 04:17:14;;;;;;;9.47;7.73;;;;;;;;;;5049499;28;20180;-74
2022/07/30 04:19:45;;;;;;;8.13;7.43;;;;;;;;;;5026707;28;20230;-74
2022/07/30 04:22:11;;;;;;;9.20;8.30;;;;;;;;;;5031596;28;20199;-74
2022/07/30 04:24:37;;;;;;;8.33;7.63;;;;;;;;;;5027533;28;20181;-74
2022/07/30 04:27:03;;;;;;;9.50;8.60;;;;;;;;;;5011565;28;20171;-74
2022/07/30 04:29:28;;;;;;;9.60;8.37;;;;;;;;;;5015138;28;20175;-74
2022/07/30 04:31:54;;;;;;;10.30;8.23;;;;;;;;;;5030892;28;20172;-74
2022/07/30 04:34:19;;;;;;;8.80;7.90;;;;;;;;;;5011846;28;20188;-74
2022/07/30 04:36:45;;;;;;;9.40;7.90;;;;;;;;;;5005052;28;20182;-74
2022/07/30 04:39:12;;;;;;;9.23;8.30;;;;;;;;;;5031106;28;20202;-74
2022/07/30 04:41:38;;;;;;;13.03;8.23;;;;;;;;;;5027844;28;20311;-74
2022/07/30 04:44:04;;;;;;;10.77;8.20;;;;;;;;;;5029392;28;20257;-74
2022/07/30 04:46:29;;;;;;;9.63;8.60;;;;;;;;;;5001885;28;20170;-74
2022/07/30 04:48:54;;;;;;;8.70;7.70;;;;;;;;;;5029459;28;20265;-74
2022/07/30 04:51:25;;;;;;;8.50;7.77;;;;;;;;;;5034049;28;20177;-74
2022/07/30 04:53:52;;;;;;;8.20;7.27;;;;;;;;;;5010187;28;20244;-74
2022/07/30 04:56:18;;;;;;;7.63;7.03;;;;;;;;;;5012764;28;20193;-74
2022/07/30 04:58:43;;;;;;;10.07;8.60;;;;;;;;;;5004546;28;20186;-74
2022/07/30 05:01:09;;;;;;;8.87;7.20;;;;;;;;;;5027555;28;20195;-74
2022/07/30 05:03:36;;;;;;;8.33;7.63;;;;;;;;;;5011947;28;20171;-74
2022/07/30 05:06:01;;;;;;;8.87;7.83;;;;;;;;;;5010710;28;20236;-74
2022/07/30 05:08:27;;;;;;;8.83;7.93;;;;;;;;;;5011997;28;20176;-74
2022/07/30 05:10:52;;;;;;;7.73;7.03;;;;;;;;;;5010202;28;20225;-74
2022/07/30 05:13:17;;;;;;;9.93;8.93;;;;;;;;;;5014122;28;20239;-74
2022/07/30 05:15:46;;;;;;;7.63;6.87;;;;;;;;;;5014619;28;20858;-74
2022/07/30 05:18:11;;;;;;;6.80;6.13;;;;;;;;;;5010908;28;20266;-74
2022/07/30 05:20:37;;;;;;;6.77;6.10;;;;;;;;;;5049780;28;20351;-74
2022/07/30 05:23:02;;;;;;;8.17;6.73;;;;;;;;;;5049961;28;20198;-74
2022/07/30 05:25:27;;;;;;;7.67;6.47;;;;;;;;;;5025018;28;20523;-74
2022/07/30 05:27:55;;;;;;;9.37;7.60;;;;;;;;;;5026328;28;20175;-74
2022/07/30 05:30:20;;;;;;;10.50;7.93;;;;;;;;;;5031385;28;20185;-74
2022/07/30 05:32:46;;;;;;;10.87;7.43;;;;;;;;;;5030125;28;20179;-74
2022/07/30 05:35:11;;;;;;;10.03;7.90;;;;;;;;;;5049466;28;20175;-74
2022/07/30 05:37:37;;;;;;;10.93;7.80;;;;;;;;;;5045476;28;20272;-74
2022/07/30 05:40:02;;;;;;;8.33;7.63;;;;;;;;;;5045591;28;20263;-74
2022/07/30 05:42:27;;;;;;;8.57;7.40;;;;;;;;;;5047298;28;20208;-74
2022/07/30 05:44:52;;;;;;;10.50;9.50;;;;;;;;;;5046253;28;20174;-74
2022/07/30 05:47:19;;;;;;;10.87;8.53;;;;;;;;;;5049370;28;20256;-74
2022/07/30 05:49:45;;;;;;;9.83;8.83;;;;;;;;;;5030115;28;20216;-74
2022/07/30 05:52:10;;;;;;;10.90;7.80;;;;;;;;;;5028886;28;20207;-74
2022/07/30 05:54:35;;;;;;;10.63;8.33;;;;;;;;;;5038595;28;20187;-74
2022/07/30 05:57:00;;;;;;;13.20;8.40;;;;;;;;;;5030789;28;20183;-74
2022/07/30 05:59:26;;;;;;;8.23;7.50;;;;;;;;;;5031511;28;20179;-74
2022/07/30 06:01:54;;;;;;;8.47;7.77;;;;;;;;;;5031901;28;20236;-74
2022/07/30 06:04:19;;;;;;;10.20;8.93;;;;;;;;;;5047087;28;20241;-75
2022/07/30 06:06:44;;;;;;;9.13;8.17;;;;;;;;;;5047329;28;20183;-74
2022/07/30 06:09:09;;;;;;;9.70;8.70;;;;;;;;;;5031335;28;20206;-74
2022/07/30 06:11:35;;;;;;;8.77;7.97;;;;;;;;;;5028940;28;20233;-75
2022/07/30 06:14:00;;;;;;;10.37;8.53;;;;;;;;;;5032300;28;20282;-74
2022/07/30 06:16:25;;;;;;;9.80;8.80;;;;;;;;;;5046725;28;20187;-74
2022/07/30 06:18:50;;;;;;;8.23;7.47;;;;;;;;;;5031359;28;20197;-75
2022/07/30 06:21:15;;;;;;;9.20;7.73;;;;;;;;;;5029012;28;20247;-74
2022/07/30 06:23:41;;;;;;;8.00;7.13;;;;;;;;;;5024318;28;20191;-74
2022/07/30 06:26:06;;;;;;;9.37;7.23;;;;;;;;;;5018673;28;20181;-75
2022/07/30 06:28:31;;;;;;;7.27;6.57;;;;;;;;;;5010196;28;20255;-74
2022/07/30 06:30:56;;;;;;;7.77;6.87;;;;;;;;;;5008591;28;20226;-74
2022/07/30 06:33:21;;;;;;;6.53;5.80;;;;;;;;;;5008312;28;20189;-75
2022/07/30 06:35:47;;;;;;;6.43;5.90;;;;;;;;;;5030212;28;20216;-75
2022/07/30 06:38:13;;;;;;;7.83;5.23;;;;;;;;;;5008757;28;20235;-74
2022/07/30 06:40:38;;;;;;;5.60;5.10;;;;;;;;;;5012717;28;20180;-74
2022/07/30 06:43:03;;;;;;;5.73;5.17;;;;;;;;;;5032776;28;20209;-75
2022/07/30 06:45:29;;;;;;;7.90;5.10;;;;;;;;;;5030349;28;20182;-74
2022/07/30 06:47:58;;;;;;;6.43;4.90;;;;;;;;;;5040160;28;20169;-74
2022/07/30 06:50:23;;;;;;;4.90;4.43;;;;;;;;;;5030947;28;20181;-74
2022/07/30 06:52:48;;;;;;;5.50;4.43;;;;;;;;;;5031697;28;20181;-75
2022/07/30 06:55:13;;;;;;;5.20;4.73;;;;;;;;;;5030950;28;20184;-75
2022/07/30 06:57:39;;;;;;;6.10;5.53;;;;;;;;;;5014730;28;20473;-74
2022/07/30 07:00:05;;;;;;;6.50;5.37;;;;;;;;;;5015222;28;20213;-75
2022/07/30 07:02:31;;;;;;;6.77;4.40;;;;;;;;;;5011540;28;20206;-75
2022/07/30 07:04:56;;;;;;;9.20;4.83;;;;;;;;;;5036643;28;20244;-73
2022/07/30 07:07:21;;;;;;;6.70;4.97;;;;;;;;;;5014671;28;20236;-73
2022/07/30 07:09:46;;;;;;;5.13;4.57;;;;;;;;;;5010040;28;20175;-76
2022/07/30 07:12:11;;;;;;;7.00;4.37;;;;;;;;;;5012566;28;20235;-76
2022/07/30 07:14:37;;;;;;;5.67;4.27;;;;;;;;;;5015587;28;20261;-76
2022/07/30 07:17:02;;;;;;;5.00;4.57;;;;;;;;;;5015141;28;20229;-76
2022/07/30 07:19:27;;;;;;;5.67;4.40;;;;;;;;;;5018609;28;20315;-76
2022/07/30 07:21:53;;;;;;;5.30;4.83;;;;;;;;;;5030180;28;20203;-77
2022/07/30 07:24:18;;;;;;;5.33;4.77;;;;;;;;;;5014362;28;20245;-76
2022/07/30 07:26:43;;;;;;;5.13;4.63;;;;;;;;;;5037633;28;20179;-76
2022/07/30 07:29:08;;;;;;;4.70;4.17;;;;;;;;;;5013724;28;20178;-76
2022/07/30 07:31:34;;;;;;;6.87;4.07;;;;;;;;;;5035030;28;20524;-76
2022/07/30 07:33:59;;;;;;;8.10;4.73;;;;;;;;;;5012069;28;20190;-76
2022/07/30 07:36:24;;;;;;;5.73;4.40;;;;;;;;;;5032307;28;20264;-76
2022/07/30 07:38:49;;;;;;;9.10;4.00;;;;;;;;;;5009051;28;20184;-76
2022/07/30 07:41:15;;;;;;;5.57;4.87;;;;;;;;;;5035532;28;20195;-76
2022/07/30 07:43:40;;;;;;;5.27;4.37;;;;;;;;;;5029067;28;20182;-76
2022/07/30 07:46:05;;;;;;;4.83;4.20;;;;;;;;;;5015268;28;20187;-76
2022/07/30 07:48:31;;;;;;;6.40;4.40;;;;;;;;;;5011775;28;20176;-76
2022/07/30 07:50:56;;;;;;;5.90;4.97;;;;;;;;;;5018265;28;20180;-77
2022/07/30 07:53:21;;;;;;;6.50;4.03;;;;;;;;;;5011948;28;20185;-76
2022/07/30 07:55:47;;;;;;;4.50;4.20;;;;;;;;;;5016960;28;20182;-76
2022/07/30 07:58:12;;;;;;;4.53;4.13;;;;;;;;;;5014478;28;20188;-76
2022/07/30 08:00:38;;;;;;;5.33;3.90;;;;;;;;;;5020619;28;20211;-76
2022/07/30 08:03:03;;;;;;;4.27;3.93;;;;;;;;;;5031245;28;20274;-76
2022/07/30 08:05:28;;;;;;;5.57;4.57;;;;;;;;;;5014719;28;20217;-76
2022/07/30 08:07:54;;;;;;;6.33;4.30;;;;;;;;;;5009012;28;20205;-75
2022/07/30 08:10:19;;;;;;;5.03;4.53;;;;;;;;;;5006231;28;20178;-76
2022/07/30 08:12:44;;;;;;;4.37;4.00;;;;;;;;;;5015874;28;20189;-76
2022/07/30 08:15:10;;;;;;;4.40;4.10;;;;;;;;;;5009227;28;20236;-77
2022/07/30 08:17:38;;;;;;;5.53;3.80;;;;;;;;;;5031236;28;20177;-76
2022/07/30 08:20:04;;;;;;;6.03;4.10;;;;;;;;;;5017820;28;20226;-76
2022/07/30 08:22:29;;;;;;;5.83;3.40;;;;;;;;;;5016906;28;20254;-76
2022/07/30 08:24:55;;;;;;;3.83;3.30;;;;;;;;;;5032394;28;20180;-76
2022/07/30 08:27:20;;;;;;;3.77;2.90;;;;;;;;;;5008008;28;20236;-76
2022/07/30 08:29:45;;;;;;;4.80;3.07;;;;;;;;;;5012769;28;20202;-76
2022/07/30 08:32:11;;;;;;;4.07;3.00;;;;;;;;;;5025763;28;20187;-77
2022/07/30 08:34:36;;;;;;;4.43;3.97;;;;;;;;;;5029924;28;20201;-76
2022/07/30 08:37:01;;;;;;;3.77;3.47;;;;;;;;;;5016026;28;20437;-76
2022/07/30 08:39:27;;;;;;;4.03;3.50;;;;;;;;;;5016046;28;20177;-75
2022/07/30 08:41:53;;;;;;;7.70;3.40;;;;;;;;;;5025023;28;20213;-76
2022/07/30 08:44:20;;;;;;;9.13;3.87;;;;;;;;;;5032816;28;20173;-76
2022/07/30 08:46:46;;;;;;;4.80;3.77;;;;;;;;;;5015532;28;20174;-76
2022/07/30 08:49:11;;;;;;;4.60;3.67;;;;;;;;;;5015482;28;20205;-77
2022/07/30 08:51:37;;;;;;;5.20;3.90;;;;;;;;;;5031900;28;20175;-76
2022/07/30 08:54:02;;;;;;;6.40;3.80;;;;;;;;;;5029459;28;20197;-77
2022/07/30 08:56:28;;;;;;;4.23;3.17;;;;;;;;;;5035319;28;20184;-77
2022/07/30 08:58:54;;;;;;;5.00;3.23;;;;;;;;;;5032203;28;20234;-77
2022/07/30 09:01:20;;;;;;;3.67;3.33;;;;;;;;;;5031327;28;20207;-76
2022/07/30 09:03:46;;;;;;;6.70;3.90;;;;;;;;;;5028470;28;20171;-77
2022/07/30 09:06:11;;;;;;;5.53;4.43;;;;;;;;;;5016753;28;20194;-76
2022/07/30 09:08:36;;;;;;;6.77;3.90;;;;;;;;;;5022890;28;20175;-77
2022/07/30 09:11:02;;;;;;;6.80;3.80;;;;;;;;;;5029504;28;20173;-77
2022/07/30 09:13:38;;;;;;;4.77;3.40;;;;;;;;;;5010773;28;20272;-77
2022/07/30 09:16:04;;;;;;;4.90;3.43;;;;;;;;;;5010999;28;20515;-77
2022/07/30 09:18:37;;;;;;;5.60;4.17;;;;;;;;;;5021164;28;20191;-77
2022/07/30 09:21:28;;;;;;;7.53;4.20;;;;;;;;;;5019132;28;20469;-77
2022/07/30 09:24:19;;;;;;;4.33;3.93;;;;;;;;;;5031881;28;20237;-77
2022/07/30 09:26:53;;;;;;;3.90;3.00;;;;;;;;;;5015092;28;20493;-77
2022/07/30 09:29:19;;;;;;;3.70;3.40;;;;;;;;;;5009168;28;20225;-76
2022/07/30 09:31:55;;;;;;;6.40;4.03;;;;;;;;;;5009444;28;20183;-77
2022/07/30 09:34:23;;;;;;;4.20;3.30;;;;;;;;;;5012298;28;20265;-77
2022/07/30 09:36:49;;;;;;;7.37;3.50;;;;;;;;;;5012036;28;20184;-76
2022/07/30 09:39:14;;;;;;;5.07;3.57;;;;;;;;;;5011799;28;20290;-76
2022/07/30 09:41:40;;;;;;;4.37;3.43;;;;;;;;;;5010036;28;20192;-77
2022/07/30 09:44:06;;;;;;;6.33;3.60;;;;;;;;;;5007389;28;20185;-77
2022/07/30 09:46:42;;;;;;;3.87;3.50;;;;;;;;;;5020022;28;20182;-77
2022/07/30 09:49:15;;;;;;;3.97;3.40;;;;;;;;;;5016914;28;20219;-77
2022/07/30 09:51:40;;;;;;;4.83;3.63;;;;;;;;;;5011470;28;20264;-77
2022/07/30 09:54:05;;;;;;;9.53;3.13;;;;;;;;;;5001176;28;20301;-77
2022/07/30 09:56:30;;;;;;;4.67;3.53;;;;;;;;;;5005784;28;20273;-76
2022/07/30 09:58:56;;;;;;;4.13;2.93;;;;;;;;;;5024079;28;20271;-77
2022/07/30 10:01:21;;;;;;;4.28;3.30;;;;;;;;;;5010487;28;20201;-76
2022/07/30 10:03:46;;;;;;;3.13;2.80;;;;;;;;;;5012856;28;20269;-76
2022/07/30 10:06:12;;;;;;;3.13;2.80;;;;;;;;;;5028470;28;20178;-77
2022/07/30 10:08:37;;;;;;;4.97;3.33;;;;;;;;;;5029318;28;20224;-77
2022/07/30 10:11:02;;;;;;;3.80;3.33;;;;;;;;;;5008300;28;20175;-75
2022/07/30 10:13:31;;;;;;;5.88;3.72;;;;;;;;;;5014404;28;20185;-78
2022/07/30 10:15:56;;;;;;;3.10;2.80;;;;;;;;;;5022524;28;20178;-78
2022/07/30 10:18:22;;;;;;;2.78;2.53;;;;;;;;;;5031543;28;20263;-78
2022/07/30 10:20:47;;;;;;;4.45;2.75;;;;;;;;;;5029125;28;20217;-78
2022/07/30 10:23:12;;;;;;;2.97;2.78;;;;;;;;;;5027879;28;20217;-78
2022/07/30 10:25:38;;;;;;;3.55;2.60;;;;;;;;;;5057346;28;20181;-78
2022/07/30 10:28:03;;;;;;;3.67;3.00;;;;;;;;;;5030541;28;20178;-78
2022/07/30 10:30:29;;;;;;;3.85;3.22;;;;;;;;;;5032081;28;20181;-78
2022/07/30 10:32:55;;;;;;;4.97;3.10;;;;;;;;;;5035568;28;20185;-78
2022/07/30 10:35:20;;;;;;;3.85;3.30;;;;;;;;;;5032581;28;20182;-78
2022/07/30 10:37:48;;;;;;;2.95;2.75;;;;;;;;;;5029066;28;20190;-78
2022/07/30 10:40:33;;;;;;;3.45;2.83;;;;;;;;;;5028921;28;20205;-78
2022/07/30 10:43:17;;;;;;;4.25;2.38;;;;;;;;;;5027742;28;20297;-78
2022/07/30 10:45:46;;;;;;;4.47;3.05;;;;;;;;;;5047599;28;20197;-78
2022/07/30 10:48:11;;;;;;;3.05;2.53;;;;;;;;;;5047098;28;20182;-77
2022/07/30 10:50:53;;;;;;;3.03;2.72;;;;;;;;;;5024655;28;20179;-78
2022/07/30 10:53:37;;;;;;;2.08;1.92;;;;;;;;;;5049953;28;20205;-78
2022/07/30 10:56:11;;;;;;;4.35;2.80;;;;;;;;;;5024481;28;20219;-78
2022/07/30 10:58:59;;;;;;;5.15;2.92;;;;;;;;;;5028038;28;20182;-78
2022/07/30 11:01:24;;;;;;;4.43;3.28;;;;;;;;;;5036074;28;20209;-78
2022/07/30 11:04:08;;;;;;;3.75;2.40;;;;;;;;;;5046733;28;20183;-78
2022/07/30 11:06:34;;;;;;;9.13;3.25;;;;;;;;;;5046436;28;20174;-78
2022/07/30 11:08:59;;;;;;;3.13;2.53;;;;;;;;;;5039484;28;20181;-78
2022/07/30 11:11:29;;;;;;;3.65;2.75;;;;;;;;;;5034268;28;20177;-76
2022/07/30 11:13:59;;;;;;;5.47;2.20;;;;;;;;;;5030822;28;20246;-78
2022/07/30 11:16:30;;;;;;;2.60;2.40;;;;;;;;;;5033408;28;20178;-78
2022/07/30 11:19:02;;;;;;;2.85;2.30;;;;;;;;;;5047803;28;20205;-78
2022/07/30 11:21:28;;;;;;;2.70;2.50;;;;;;;;;;5048834;28;20217;-78
2022/07/30 11:23:53;;;;;;;2.53;2.33;;;;;;;;;;5024646;28;20192;-78
2022/07/30 11:26:37;;;;;;;3.20;2.60;;;;;;;;;;5021709;28;20188;-77
2022/07/30 11:29:02;;;;;;;3.13;2.47;;;;;;;;;;5046718;28;20228;-76
2022/07/30 11:31:30;;;;;;;3.05;2.85;;;;;;;;;;5055904;28;20178;-76
2022/07/30 11:34:14;;;;;;;3.97;2.53;;;;;;;;;;5041201;28;20190;-77
2022/07/30 11:36:59;;;;;;;2.72;2.53;;;;;;;;;;5056116;28;20211;-78
2022/07/30 11:39:44;;;;;;;3.10;2.63;;;;;;;;;;5043983;28;20181;-76
2022/07/30 11:42:28;;;;;;;3.05;2.60;;;;;;;;;;5037085;28;20205;-79
2022/07/30 11:45:12;;;;;;;2.78;2.55;;;;;;;;;;5054000;28;20227;-76
2022/07/30 11:47:37;;;;;;;2.58;2.38;;;;;;;;;;5055005;28;20181;-79
2022/07/30 11:50:03;;;;;;;3.70;2.85;;;;;;;;;;5049399;28;20178;-79
2022/07/30 11:52:28;;;;;;;3.33;3.03;;;;;;;;;;5033959;28;20197;-77
2022/07/30 11:54:54;;;;;;;3.42;3.03;;;;;;;;;;5031581;28;20185;-77
2022/07/30 11:57:37;;;;;;;4.28;2.47;;;;;;;;;;5052918;28;20261;-77
2022/07/30 12:00:03;;;;;;;2.78;2.42;;;;;;;;;;5033966;28;20185;-77
2022/07/30 12:02:28;;;;;;;2.75;2.55;;;;;;;;;;5038174;28;20198;-76
2022/07/30 12:04:53;;;;;;;3.28;2.50;;;;;;;;;;5058095;28;20309;-76
2022/07/30 12:07:22;;;;;;;2.50;2.30;;;;;;;;;;5036626;28;20214;-77
2022/07/30 12:09:47;;;;;;;3.95;2.50;;;;;;;;;;5034107;28;20224;-76
2022/07/30 12:12:23;;;;;;;3.28;2.65;;;;;;;;;;5045748;28;20174;-77
2022/07/30 12:14:48;;;;;;;2.38;2.20;;;;;;;;;;5037558;28;20205;-78
2022/07/30 12:17:13;;;;;;;3.45;2.10;;;;;;;;;;5050505;28;20201;-74
2022/07/30 12:19:46;;;;;;;4.47;2.40;;;;;;;;;;5029180;28;20252;-76
2022/07/30 12:22:11;;;;;;;3.00;2.40;;;;;;;;;;5016918;28;20206;-77
2022/07/30 12:24:36;;;;;;;6.60;3.03;;;;;;;;;;5035768;28;20270;-76
2022/07/30 12:27:03;;;;;;;2.10;2.00;;;;;;;;;;5033045;28;20182;-75
2022/07/30 12:29:28;;;;;;;2.78;2.30;;;;;;;;;;5028802;28;20215;-76
2022/07/30 12:31:53;;;;;;;3.08;2.50;;;;;;;;;;5013888;28;20199;-77
2022/07/30 12:34:20;;;;;;;2.80;2.60;;;;;;;;;;5029895;28;20189;-77
2022/07/30 12:36:45;;;;;;;3.35;2.90;;;;;;;;;;5017398;28;20254;-77
2022/07/30 12:39:17;;;;;;;2.88;2.67;;;;;;;;;;5016675;28;20265;-76
2022/07/30 12:41:43;;;;;;;3.08;2.72;;;;;;;;;;5012035;28;20195;-76
2022/07/30 12:44:09;;;;;;;4.93;2.92;;;;;;;;;;5033304;28;20182;-79
2022/07/30 12:46:39;;;;;;;2.67;2.40;;;;;;;;;;5013999;28;20232;-79
2022/07/30 12:49:05;;;;;;;2.97;2.60;;;;;;;;;;5034841;28;20175;-80
2022/07/30 12:51:35;;;;;;;2.85;2.65;;;;;;;;;;5015369;28;20178;-79
2022/07/30 12:54:01;;;;;;;2.97;2.33;;;;;;;;;;5037628;28;20239;-79
2022/07/30 12:56:27;;;;;;;4.22;2.95;;;;;;;;;;5029260;28;20184;-77
2022/07/30 12:58:53;;;;;;;2.78;2.58;;;;;;;;;;5014959;28;20183;-77
2022/07/30 13:01:37;;;;;;;4.47;2.40;;;;;;;;;;5010373;28;20182;-77
2022/07/30 13:04:05;;;;;;;2.47;2.28;;;;;;;;;;5030112;28;20205;-78
2022/07/30 13:06:30;;;;;;;5.45;3.17;;;;;;;;;;5032175;28;20182;-77
2022/07/30 13:08:56;;;;;;;2.58;2.30;;;;;;;;;;5030094;28;20178;-77
2022/07/30 13:11:23;;;;;;;3.88;2.38;;;;;;;;;;5013915;28;20186;-77
2022/07/30 13:13:49;;;;;;;2.60;2.40;;;;;;;;;;5011609;28;20194;-76
2022/07/30 13:16:14;;;;;;;3.38;2.42;;;;;;;;;;5029355;28;20183;-76
2022/07/30 13:18:39;;;;;;;3.80;2.53;;;;;;;;;;5027464;28;20210;-77
2022/07/30 13:21:09;;;;;;;3.47;2.30;;;;;;;;;;5033047;28;20222;-77
2022/07/30 13:23:35;;;;;;;2.70;2.30;;;;;;;;;;5033045;28;20175;-76
2022/07/30 13:26:00;;;;;;;2.53;2.30;;;;;;;;;;5036370;28;20261;-77
2022/07/30 13:28:26;;;;;;;8.57;2.30;;;;;;;;;;5032814;28;20268;-77
2022/07/30 13:30:52;;;;;;;2.83;2.22;;;;;;;;;;5035485;28;20209;-77
2022/07/30 13:33:17;;;;;;;4.38;2.35;;;;;;;;;;5025905;28;20190;-77
2022/07/30 13:35:42;;;;;;;3.03;2.45;;;;;;;;;;5028735;28;20269;-77
2022/07/30 13:38:09;;;;;;;2.42;1.90;;;;;;;;;;5029250;28;20180;-77
2022/07/30 13:40:35;;;;;;;3.85;2.10;;;;;;;;;;5025575;28;20179;-78
2022/07/30 13:43:00;;;;;;;2.17;2.00;;;;;;;;;;5056923;28;20205;-74
2022/07/30 13:45:25;;;;;;;4.18;2.40;;;;;;;;;;5028997;28;20190;-76
2022/07/30 13:47:51;;;;;;;6.18;2.38;;;;;;;;;;5041206;28;20170;-75
2022/07/30 13:50:17;;;;;;;2.60;1.98;;;;;;;;;;5047623;28;20178;-77
2022/07/30 13:52:42;;;;;;;2.85;2.13;;;;;;;;;;5031119;28;20284;-77
2022/07/30 13:55:07;;;;;;;3.53;2.15;;;;;;;;;;5032930;28;20186;-77
2022/07/30 13:57:32;;;;;;;2.25;2.03;;;;;;;;;;5031916;28;20242;-77
2022/07/30 13:59:57;;;;;;;2.42;2.22;;;;;;;;;;5053722;28;20204;-77
2022/07/30 14:02:23;;;;;;;2.13;1.90;;;;;;;;;;5031325;28;20209;-77
2022/07/30 14:04:48;;;;;;;3.10;1.95;;;;;;;;;;5043031;28;20171;-76
2022/07/30 14:07:13;;;;;;;3.72;1.92;;;;;;;;;;5040897;28;20177;-77
2022/07/30 14:09:38;;;;;;;1.67;1.58;;;;;;;;;;5048040;28;20171;-75
2022/07/30 14:12:04;;;;;;;2.38;1.80;;;;;;;;;;5023880;28;20214;-77
2022/07/30 14:14:29;;;;;;;3.95;2.25;;;;;;;;;;5044729;28;20174;-77
2022/07/30 14:16:54;;;;;;;2.22;1.92;;;;;;;;;;5032243;28;20225;-75
2022/07/30 14:19:20;;;;;;;2.25;2.00;;;;;;;;;;5048257;28;20201;-77
2022/07/30 14:21:45;;;;;;;4.68;1.77;;;;;;;;;;5051364;28;20226;-77
2022/07/30 14:24:11;;;;;;;2.20;2.10;;;;;;;;;;5044776;28;20209;-76
2022/07/30 14:26:37;;;;;;;3.17;1.88;;;;;;;;;;5027503;28;20185;-76
2022/07/30 14:29:03;;;;;;;4.20;2.00;;;;;;;;;;5045600;28;20201;-76
2022/07/30 14:31:28;;;;;;;2.63;1.95;;;;;;;;;;5041049;28;20258;-77
2022/07/30 14:33:54;;;;;;;2.47;2.13;;;;;;;;;;5047672;28;20257;-77
2022/07/30 14:36:19;;;;;;;2.85;1.77;;;;;;;;;;5047015;28;20237;-76
2022/07/30 14:38:44;;;;;;;3.97;2.13;;;;;;;;;;5038715;28;20238;-76
2022/07/30 14:41:10;;;;;;;3.15;1.70;;;;;;;;;;5026749;28;20619;-76